sensor_id;sensor_type;location;lat;lon;timestamp;temperature;humidity
15937;DHT22;9163;48.818;8.976;2024-02-23T00:01:43;4.90;99.90
15937;DHT22;9163;48.818;8.976;2024-02-23T00:04:11;4.90;99.90
15937;DHT22;9163;48.818;8.976;2024-02-23T00:06:40;5.00;99.90
15937;DHT22;9163;48.818;8.976;2024-02-23T00:09:07;5.00;99.90
15937;DHT22;9163;48.818;8.976;2024-02-23T00:11:34;5.00;99.90
15937;DHT22;9163;48.818;8.976;2024-02-23T00:14:05;5.00;99.90
15937;DHT22;9163;48.818;8.976;2024-02-23T00:16:37;5.10;99.90
15937;DHT22;9163;48.818;8.976;2024-02-23T00:19:05;5.10;99.90
15937;DHT22;9163;48.818;8.976;2024-02-23T00:21:32;5.10;99.90
15937;DHT22;9163;48.818;8.976;2024-02-23T00:24:01;5.00;99.90
15937;DHT22;9163;48.818;8.976;2024-02-23T00:26:28;5.00;99.90
15937;DHT22;9163;48.818;8.976;2024-02-23T00:28:55;5.10;99.90
15937;DHT22;9163;48.818;8.976;2024-02-23T00:31:23;5.10;99.90
15937;DHT22;9163;48.818;8.976;2024-02-23T00:33:50;5.10;99.90
15937;DHT22;9163;48.818;8.976;2024-02-23T00:36:17;5.10;99.90
15937;DHT22;9163;48.818;8.976;2024-02-23T00:38:45;5.10;99.90
15937;DHT22;9163;48.818;8.976;2024-02-23T00:41:14;5.00;99.90
15937;DHT22;9163;48.818;8.976;2024-02-23T00:43:41;5.00;99.90
15937;DHT22;9163;48.818;8.976;2024-02-23T00:46:08;5.10;99.90
15937;DHT22;9163;48.818;8.976;2024-02-23T00:48:36;5.10;91.60
15937;DHT22;9163;48.818;8.976;2024-02-23T00:51:03;5.20;70.10
15937;DHT22;9163;48.818;8.976;2024-02-23T00:53:31;5.20;38.80
15937;DHT22;9163;48.818;8.976;2024-02-23T00:55:58;5.20;49.00
15937;DHT22;9163;48.818;8.976;2024-02-23T00:58:27;5.10;66.60
15937;DHT22;9163;48.818;8.976;2024-02-23T01:00:55;5.10;90.00
15937;DHT22;9163;48.818;8.976;2024-02-23T01:03:22;5.10;80.10
15937;DHT22;9163;48.818;8.976;2024-02-23T01:05:50;5.10;92.00
15937;DHT22;9163;48.818;8.976;2024-02-23T01:08:17;5.10;80.80
15937;DHT22;9163;48.818;8.976;2024-02-23T01:10:44;5.10;72.60
15937;DHT22;9163;48.818;8.976;2024-02-23T01:13:12;5.00;91.70
15937;DHT22;9163;48.818;8.976;2024-02-23T01:15:41;5.10;68.30
15937;DHT22;9163;48.818;8.976;2024-02-23T01:18:08;5.00;76.00
15937;DHT22;9163;48.818;8.976;2024-02-23T01:20:36;5.00;91.80
15937;DHT22;9163;48.818;8.976;2024-02-23T01:23:03;5.00;77.20
15937;DHT22;9163;48.818;8.976;2024-02-23T01:25:30;5.00;84.40
15937;DHT22;9163;48.818;8.976;2024-02-23T01:28:00;5.00;83.50
15937;DHT22;9163;48.818;8.976;2024-02-23T01:30:29;5.10;96.10
15937;DHT22;9163;48.818;8.976;2024-02-23T01:32:57;5.10;99.90
15937;DHT22;9163;48.818;8.976;2024-02-23T01:35:25;5.00;99.90
15937;DHT22;9163;48.818;8.976;2024-02-23T01:37:53;5.00;99.90
15937;DHT22;9163;48.818;8.976;2024-02-23T01:40:20;5.10;99.90
15937;DHT22;9163;48.818;8.976;2024-02-23T01:42:47;5.10;99.90
15937;DHT22;9163;48.818;8.976;2024-02-23T01:45:15;5.00;99.90
15937;DHT22;9163;48.818;8.976;2024-02-23T01:47:42;5.00;99.90
15937;DHT22;9163;48.818;8.976;2024-02-23T01:50:11;5.00;99.90
15937;DHT22;9163;48.818;8.976;2024-02-23T01:52:39;5.00;99.90
15937;DHT22;9163;48.818;8.976;2024-02-23T01:55:06;4.90;99.90
15937;DHT22;9163;48.818;8.976;2024-02-23T01:57:34;5.00;99.90
15937;DHT22;9163;48.818;8.976;2024-02-23T02:00:01;5.00;99.90
15937;DHT22;9163;48.818;8.976;2024-02-23T02:02:30;5.00;99.90
15937;DHT22;9163;48.818;8.976;2024-02-23T02:04:58;4.90;99.90
15937;DHT22;9163;48.818;8.976;2024-02-23T02:07:27;4.90;99.90
15937;DHT22;9163;48.818;8.976;2024-02-23T02:09:54;4.90;99.90
15937;DHT22;9163;48.818;8.976;2024-02-23T02:12:27;4.80;99.90
15937;DHT22;9163;48.818;8.976;2024-02-23T02:14:55;4.60;99.90
15937;DHT22;9163;48.818;8.976;2024-02-23T02:17:22;4.60;99.90
15937;DHT22;9163;48.818;8.976;2024-02-23T02:19:49;4.60;99.90
15937;DHT22;9163;48.818;8.976;2024-02-23T02:22:16;4.50;99.90
15937;DHT22;9163;48.818;8.976;2024-02-23T02:24:45;4.40;99.90
15937;DHT22;9163;48.818;8.976;2024-02-23T02:27:14;4.30;99.90
15937;DHT22;9163;48.818;8.976;2024-02-23T02:29:41;4.30;99.90
15937;DHT22;9163;48.818;8.976;2024-02-23T02:32:09;4.30;99.90
15937;DHT22;9163;48.818;8.976;2024-02-23T02:34:36;4.40;99.90
15937;DHT22;9163;48.818;8.976;2024-02-23T02:37:03;4.40;99.90
15937;DHT22;9163;48.818;8.976;2024-02-23T02:39:30;4.40;99.90
15937;DHT22;9163;48.818;8.976;2024-02-23T02:41:59;4.40;99.90
15937;DHT22;9163;48.818;8.976;2024-02-23T02:44:26;4.40;99.90
15937;DHT22;9163;48.818;8.976;2024-02-23T02:46:56;4.40;99.90
15937;DHT22;9163;48.818;8.976;2024-02-23T02:49:24;4.30;99.90
15937;DHT22;9163;48.818;8.976;2024-02-23T02:51:51;4.30;99.90
15937;DHT22;9163;48.818;8.976;2024-02-23T02:54:18;4.30;99.90
15937;DHT22;9163;48.818;8.976;2024-02-23T02:56:47;4.30;99.90
15937;DHT22;9163;48.818;8.976;2024-02-23T02:59:17;4.30;99.90
15937;DHT22;9163;48.818;8.976;2024-02-23T03:01:45;4.30;99.90
15937;DHT22;9163;48.818;8.976;2024-02-23T03:04:12;4.40;99.90
15937;DHT22;9163;48.818;8.976;2024-02-23T03:06:40;4.40;99.90
15937;DHT22;9163;48.818;8.976;2024-02-23T03:09:07;4.50;99.90
15937;DHT22;9163;48.818;8.976;2024-02-23T03:11:35;4.40;99.90
15937;DHT22;9163;48.818;8.976;2024-02-23T03:14:02;4.40;99.90
15937;DHT22;9163;48.818;8.976;2024-02-23T03:16:31;4.40;99.90
15937;DHT22;9163;48.818;8.976;2024-02-23T03:19:00;4.40;99.90
15937;DHT22;9163;48.818;8.976;2024-02-23T03:21:27;4.40;99.90
15937;DHT22;9163;48.818;8.976;2024-02-23T03:23:54;4.40;99.90
15937;DHT22;9163;48.818;8.976;2024-02-23T03:26:21;4.30;99.90
15937;DHT22;9163;48.818;8.976;2024-02-23T03:28:49;4.20;99.90
15937;DHT22;9163;48.818;8.976;2024-02-23T03:31:15;4.20;99.90
15937;DHT22;9163;48.818;8.976;2024-02-23T03:33:44;4.20;99.90
15937;DHT22;9163;48.818;8.976;2024-02-23T03:36:11;4.20;99.90
15937;DHT22;9163;48.818;8.976;2024-02-23T03:38:39;4.20;99.90
15937;DHT22;9163;48.818;8.976;2024-02-23T03:41:06;4.10;99.90
15937;DHT22;9163;48.818;8.976;2024-02-23T03:43:33;4.10;99.90
15937;DHT22;9163;48.818;8.976;2024-02-23T03:46:00;4.10;99.90
15937;DHT22;9163;48.818;8.976;2024-02-23T03:48:28;4.00;99.90
15937;DHT22;9163;48.818;8.976;2024-02-23T03:50:56;4.00;99.90
15937;DHT22;9163;48.818;8.976;2024-02-23T03:53:23;4.00;90.40
15937;DHT22;9163;48.818;8.976;2024-02-23T03:55:51;4.10;56.50
15937;DHT22;9163;48.818;8.976;2024-02-23T03:58:18;4.00;59.40
15937;DHT22;9163;48.818;8.976;2024-02-23T04:00:45;4.10;14.70
15937;DHT22;9163;48.818;8.976;2024-02-23T04:03:12;4.10;7.70
15937;DHT22;9163;48.818;8.976;2024-02-23T04:05:40;4.00;23.30
15937;DHT22;9163;48.818;8.976;2024-02-23T04:08:08;4.00;18.70
15937;DHT22;9163;48.818;8.976;2024-02-23T04:10:35;4.00;17.40
15937;DHT22;9163;48.818;8.976;2024-02-23T04:13:03;3.90;18.90
15937;DHT22;9163;48.818;8.976;2024-02-23T04:15:30;3.90;1.00
15937;DHT22;9163;48.818;8.976;2024-02-23T04:17:58;3.90;1.00
15937;DHT22;9163;48.818;8.976;2024-02-23T04:20:25;3.80;1.00
15937;DHT22;9163;48.818;8.976;2024-02-23T04:22:52;3.90;1.00
15937;DHT22;9163;48.818;8.976;2024-02-23T04:25:21;3.90;1.00
15937;DHT22;9163;48.818;8.976;2024-02-23T04:27:48;3.90;1.00
15937;DHT22;9163;48.818;8.976;2024-02-23T04:30:15;3.90;1.00
15937;DHT22;9163;48.818;8.976;2024-02-23T04:32:43;3.80;1.00
15937;DHT22;9163;48.818;8.976;2024-02-23T04:35:10;3.80;1.00
15937;DHT22;9163;48.818;8.976;2024-02-23T04:37:38;3.90;1.00
15937;DHT22;9163;48.818;8.976;2024-02-23T04:40:07;3.80;1.00
15937;DHT22;9163;48.818;8.976;2024-02-23T04:42:36;3.80;1.00
15937;DHT22;9163;48.818;8.976;2024-02-23T04:45:04;3.80;1.00
15937;DHT22;9163;48.818;8.976;2024-02-23T04:47:31;3.80;1.00
15937;DHT22;9163;48.818;8.976;2024-02-23T04:49:58;3.80;1.00
15937;DHT22;9163;48.818;8.976;2024-02-23T04:52:25;3.80;1.00
15937;DHT22;9163;48.818;8.976;2024-02-23T04:54:53;3.80;1.00
15937;DHT22;9163;48.818;8.976;2024-02-23T04:57:20;3.70;1.00
15937;DHT22;9163;48.818;8.976;2024-02-23T04:59:49;3.70;1.00
15937;DHT22;9163;48.818;8.976;2024-02-23T05:02:16;3.70;1.00
15937;DHT22;9163;48.818;8.976;2024-02-23T05:04:43;3.70;1.00
15937;DHT22;9163;48.818;8.976;2024-02-23T05:07:10;3.70;1.00
15937;DHT22;9163;48.818;8.976;2024-02-23T05:09:37;3.70;1.00
15937;DHT22;9163;48.818;8.976;2024-02-23T05:12:07;3.60;1.00
15937;DHT22;9163;48.818;8.976;2024-02-23T05:14:35;3.60;1.00
15937;DHT22;9163;48.818;8.976;2024-02-23T05:17:03;3.60;1.00
15937;DHT22;9163;48.818;8.976;2024-02-23T05:19:31;3.60;1.00
15937;DHT22;9163;48.818;8.976;2024-02-23T05:21:58;3.50;1.00
15937;DHT22;9163;48.818;8.976;2024-02-23T05:24:25;3.50;1.00
15937;DHT22;9163;48.818;8.976;2024-02-23T05:26:52;3.50;1.00
15937;DHT22;9163;48.818;8.976;2024-02-23T05:29:19;3.50;1.00
15937;DHT22;9163;48.818;8.976;2024-02-23T05:31:52;3.50;1.00
15937;DHT22;9163;48.818;8.976;2024-02-23T05:34:21;3.60;1.00
15937;DHT22;9163;48.818;8.976;2024-02-23T05:36:48;3.60;1.00
15937;DHT22;9163;48.818;8.976;2024-02-23T05:39:16;3.50;1.00
15937;DHT22;9163;48.818;8.976;2024-02-23T05:41:44;3.50;1.00
15937;DHT22;9163;48.818;8.976;2024-02-23T05:44:11;3.50;1.00
15937;DHT22;9163;48.818;8.976;2024-02-23T05:46:39;3.40;1.00
15937;DHT22;9163;48.818;8.976;2024-02-23T05:49:06;3.40;1.00
15937;DHT22;9163;48.818;8.976;2024-02-23T05:51:35;3.30;1.00
15937;DHT22;9163;48.818;8.976;2024-02-23T05:54:02;3.30;1.00
15937;DHT22;9163;48.818;8.976;2024-02-23T05:56:30;3.20;1.00
15937;DHT22;9163;48.818;8.976;2024-02-23T05:58:57;3.20;1.00
15937;DHT22;9163;48.818;8.976;2024-02-23T06:01:24;3.20;1.00
15937;DHT22;9163;48.818;8.976;2024-02-23T06:03:51;3.20;1.00
15937;DHT22;9163;48.818;8.976;2024-02-23T06:06:20;3.20;1.00
15937;DHT22;9163;48.818;8.976;2024-02-23T06:08:49;3.20;1.00
15937;DHT22;9163;48.818;8.976;2024-02-23T06:11:17;3.10;1.00
15937;DHT22;9163;48.818;8.976;2024-02-23T06:13:44;3.10;1.00
15937;DHT22;9163;48.818;8.976;2024-02-23T06:16:11;3.10;1.00
15937;DHT22;9163;48.818;8.976;2024-02-23T06:18:40;3.10;9.70
15937;DHT22;9163;48.818;8.976;2024-02-23T06:21:12;3.00;26.30
15937;DHT22;9163;48.818;8.976;2024-02-23T06:23:39;3.00;55.10
15937;DHT22;9163;48.818;8.976;2024-02-23T06:26:08;3.00;76.10
15937;DHT22;9163;48.818;8.976;2024-02-23T06:28:38;3.00;77.20
15937;DHT22;9163;48.818;8.976;2024-02-23T06:31:08;3.00;83.20
15937;DHT22;9163;48.818;8.976;2024-02-23T06:33:35;2.90;89.70
15937;DHT22;9163;48.818;8.976;2024-02-23T06:36:03;2.90;94.80
15937;DHT22;9163;48.818;8.976;2024-02-23T06:38:30;2.90;99.90
15937;DHT22;9163;48.818;8.976;2024-02-23T06:40:58;3.00;99.90
15937;DHT22;9163;48.818;8.976;2024-02-23T06:43:26;3.00;99.90
15937;DHT22;9163;48.818;8.976;2024-02-23T06:45:53;3.00;99.90
15937;DHT22;9163;48.818;8.976;2024-02-23T06:48:21;3.10;99.90
15937;DHT22;9163;48.818;8.976;2024-02-23T06:50:48;3.10;99.90
15937;DHT22;9163;48.818;8.976;2024-02-23T06:53:15;3.10;99.90
15937;DHT22;9163;48.818;8.976;2024-02-23T06:55:42;3.10;99.90
15937;DHT22;9163;48.818;8.976;2024-02-23T06:58:10;3.10;99.90
15937;DHT22;9163;48.818;8.976;2024-02-23T07:00:40;3.10;99.90
15937;DHT22;9163;48.818;8.976;2024-02-23T07:03:08;3.10;99.90
15937;DHT22;9163;48.818;8.976;2024-02-23T07:05:35;3.20;99.90
15937;DHT22;9163;48.818;8.976;2024-02-23T07:08:03;3.20;99.90
15937;DHT22;9163;48.818;8.976;2024-02-23T07:10:30;3.20;99.90
15937;DHT22;9163;48.818;8.976;2024-02-23T07:12:57;3.20;99.90
15937;DHT22;9163;48.818;8.976;2024-02-23T07:15:24;3.30;99.90
15937;DHT22;9163;48.818;8.976;2024-02-23T07:17:53;3.30;99.90
15937;DHT22;9163;48.818;8.976;2024-02-23T07:20:20;3.20;99.90
15937;DHT22;9163;48.818;8.976;2024-02-23T07:22:47;3.30;99.90
15937;DHT22;9163;48.818;8.976;2024-02-23T07:25:16;3.30;99.90
15937;DHT22;9163;48.818;8.976;2024-02-23T07:27:43;3.30;99.90
15937;DHT22;9163;48.818;8.976;2024-02-23T07:30:12;3.40;99.90
15937;DHT22;9163;48.818;8.976;2024-02-23T07:32:39;3.40;99.90
15937;DHT22;9163;48.818;8.976;2024-02-23T07:35:09;3.40;99.90
15937;DHT22;9163;48.818;8.976;2024-02-23T07:37:36;3.50;99.90
15937;DHT22;9163;48.818;8.976;2024-02-23T07:40:04;3.50;99.90
15937;DHT22;9163;48.818;8.976;2024-02-23T07:42:32;3.50;99.90
15937;DHT22;9163;48.818;8.976;2024-02-23T07:45:02;3.60;99.90
15937;DHT22;9163;48.818;8.976;2024-02-23T07:47:30;3.60;99.90
15937;DHT22;9163;48.818;8.976;2024-02-23T07:49:57;3.60;99.90
15937;DHT22;9163;48.818;8.976;2024-02-23T07:52:26;3.70;99.90
15937;DHT22;9163;48.818;8.976;2024-02-23T07:54:53;3.80;99.90
15937;DHT22;9163;48.818;8.976;2024-02-23T07:57:21;3.90;99.90
15937;DHT22;9163;48.818;8.976;2024-02-23T07:59:48;3.90;99.90
15937;DHT22;9163;48.818;8.976;2024-02-23T08:02:16;3.80;99.90
15937;DHT22;9163;48.818;8.976;2024-02-23T08:04:43;3.80;99.90
15937;DHT22;9163;48.818;8.976;2024-02-23T08:07:10;3.70;99.90
15937;DHT22;9163;48.818;8.976;2024-02-23T08:09:39;3.70;99.90
15937;DHT22;9163;48.818;8.976;2024-02-23T08:12:07;3.70;99.90
15937;DHT22;9163;48.818;8.976;2024-02-23T08:14:34;3.70;99.90
15937;DHT22;9163;48.818;8.976;2024-02-23T08:17:01;3.80;99.90
15937;DHT22;9163;48.818;8.976;2024-02-23T08:19:28;3.90;99.90
15937;DHT22;9163;48.818;8.976;2024-02-23T08:21:56;4.00;99.90
15937;DHT22;9163;48.818;8.976;2024-02-23T08:24:23;4.20;99.90
15937;DHT22;9163;48.818;8.976;2024-02-23T08:26:53;4.20;99.90
15937;DHT22;9163;48.818;8.976;2024-02-23T08:29:21;4.50;99.90
15937;DHT22;9163;48.818;8.976;2024-02-23T08:31:49;4.60;99.90
15937;DHT22;9163;48.818;8.976;2024-02-23T08:34:16;4.60;99.90
15937;DHT22;9163;48.818;8.976;2024-02-23T08:36:44;4.60;99.90
15937;DHT22;9163;48.818;8.976;2024-02-23T08:39:11;4.50;99.90
15937;DHT22;9163;48.818;8.976;2024-02-23T08:41:38;4.40;99.90
15937;DHT22;9163;48.818;8.976;2024-02-23T08:44:07;4.40;99.90
15937;DHT22;9163;48.818;8.976;2024-02-23T08:46:34;4.30;99.90
15937;DHT22;9163;48.818;8.976;2024-02-23T08:49:05;4.40;99.90
15937;DHT22;9163;48.818;8.976;2024-02-23T08:51:32;4.60;99.90
15937;DHT22;9163;48.818;8.976;2024-02-23T08:53:59;4.60;99.90
15937;DHT22;9163;48.818;8.976;2024-02-23T08:56:30;4.70;99.30
15937;DHT22;9163;48.818;8.976;2024-02-23T08:58:58;4.60;85.20
15937;DHT22;9163;48.818;8.976;2024-02-23T09:01:26;4.60;96.70
15937;DHT22;9163;48.818;8.976;2024-02-23T09:03:54;4.60;99.90
15937;DHT22;9163;48.818;8.976;2024-02-23T09:06:22;4.60;99.90
15937;DHT22;9163;48.818;8.976;2024-02-23T09:08:49;4.60;81.60
15937;DHT22;9163;48.818;8.976;2024-02-23T09:11:16;4.80;51.90
15937;DHT22;9163;48.818;8.976;2024-02-23T09:13:43;4.90;45.50
15937;DHT22;9163;48.818;8.976;2024-02-23T09:16:11;5.20;21.90
15937;DHT22;9163;48.818;8.976;2024-02-23T09:18:39;5.40;1.00
15937;DHT22;9163;48.818;8.976;2024-02-23T09:21:06;5.50;1.00
15937;DHT22;9163;48.818;8.976;2024-02-23T09:23:34;6.00;1.00
15937;DHT22;9163;48.818;8.976;2024-02-23T09:26:01;5.90;1.00
15937;DHT22;9163;48.818;8.976;2024-02-23T09:28:30;5.80;1.00
15937;DHT22;9163;48.818;8.976;2024-02-23T09:30:57;5.70;1.00
15937;DHT22;9163;48.818;8.976;2024-02-23T09:33:25;5.90;1.00
15937;DHT22;9163;48.818;8.976;2024-02-23T09:35:53;6.10;1.00
15937;DHT22;9163;48.818;8.976;2024-02-23T09:38:22;6.40;1.00
15937;DHT22;9163;48.818;8.976;2024-02-23T09:40:50;6.50;1.00
15937;DHT22;9163;48.818;8.976;2024-02-23T09:43:18;6.30;1.00
15937;DHT22;9163;48.818;8.976;2024-02-23T09:45:46;6.20;1.00
15937;DHT22;9163;48.818;8.976;2024-02-23T09:48:14;5.80;1.00
15937;DHT22;9163;48.818;8.976;2024-02-23T09:50:44;5.70;1.00
15937;DHT22;9163;48.818;8.976;2024-02-23T09:53:13;5.60;1.00
15937;DHT22;9163;48.818;8.976;2024-02-23T09:55:43;5.80;1.00
15937;DHT22;9163;48.818;8.976;2024-02-23T09:58:13;5.70;1.00
15937;DHT22;9163;48.818;8.976;2024-02-23T10:00:42;5.50;1.00
15937;DHT22;9163;48.818;8.976;2024-02-23T10:03:09;5.30;1.00
15937;DHT22;9163;48.818;8.976;2024-02-23T10:05:36;5.20;1.00
15937;DHT22;9163;48.818;8.976;2024-02-23T10:08:04;5.20;1.00
15937;DHT22;9163;48.818;8.976;2024-02-23T10:10:34;5.20;1.00
15937;DHT22;9163;48.818;8.976;2024-02-23T10:13:01;5.10;1.00
15937;DHT22;9163;48.818;8.976;2024-02-23T10:15:30;5.10;1.00
15937;DHT22;9163;48.818;8.976;2024-02-23T10:17:58;5.10;1.00
15937;DHT22;9163;48.818;8.976;2024-02-23T10:20:25;5.10;1.00
15937;DHT22;9163;48.818;8.976;2024-02-23T10:22:52;5.00;1.00
15937;DHT22;9163;48.818;8.976;2024-02-23T10:25:20;5.00;1.00
15937;DHT22;9163;48.818;8.976;2024-02-23T10:27:49;5.10;1.00
15937;DHT22;9163;48.818;8.976;2024-02-23T10:30:16;5.30;1.00
15937;DHT22;9163;48.818;8.976;2024-02-23T10:32:45;5.50;1.00
15937;DHT22;9163;48.818;8.976;2024-02-23T10:35:14;6.10;1.00
15937;DHT22;9163;48.818;8.976;2024-02-23T10:37:42;6.70;1.00
15937;DHT22;9163;48.818;8.976;2024-02-23T10:40:12;7.70;1.00
15937;DHT22;9163;48.818;8.976;2024-02-23T10:42:41;8.20;1.00
15937;DHT22;9163;48.818;8.976;2024-02-23T10:45:12;8.50;1.00
15937;DHT22;9163;48.818;8.976;2024-02-23T10:47:39;8.90;1.00
15937;DHT22;9163;48.818;8.976;2024-02-23T10:50:07;8.90;99.90
15937;DHT22;9163;48.818;8.976;2024-02-23T10:52:35;8.70;99.90
15937;DHT22;9163;48.818;8.976;2024-02-23T10:55:03;8.10;99.90
15937;DHT22;9163;48.818;8.976;2024-02-23T10:57:31;7.70;99.90
15937;DHT22;9163;48.818;8.976;2024-02-23T10:59:59;7.70;99.90
15937;DHT22;9163;48.818;8.976;2024-02-23T11:02:31;7.50;1.00
15937;DHT22;9163;48.818;8.976;2024-02-23T11:05:01;7.80;1.00
15937;DHT22;9163;48.818;8.976;2024-02-23T11:07:30;7.50;1.00
15937;DHT22;9163;48.818;8.976;2024-02-23T11:09:59;7.20;1.00
15937;DHT22;9163;48.818;8.976;2024-02-23T11:12:29;7.40;1.00
15937;DHT22;9163;48.818;8.976;2024-02-23T11:14:57;7.50;99.90
15937;DHT22;9163;48.818;8.976;2024-02-23T11:17:28;7.40;99.90
15937;DHT22;9163;48.818;8.976;2024-02-23T11:19:56;7.30;99.90
15937;DHT22;9163;48.818;8.976;2024-02-23T11:22:24;7.10;99.90
15937;DHT22;9163;48.818;8.976;2024-02-23T11:24:53;6.90;1.00
15937;DHT22;9163;48.818;8.976;2024-02-23T11:27:20;7.00;1.00
15937;DHT22;9163;48.818;8.976;2024-02-23T11:29:59;6.90;1.00
15937;DHT22;9163;48.818;8.976;2024-02-23T11:32:37;6.70;1.00
15937;DHT22;9163;48.818;8.976;2024-02-23T11:35:06;6.60;99.90
15937;DHT22;9163;48.818;8.976;2024-02-23T11:37:45;6.60;1.00
15937;DHT22;9163;48.818;8.976;2024-02-23T11:40:13;6.50;1.00
15937;DHT22;9163;48.818;8.976;2024-02-23T11:42:41;6.50;1.00
15937;DHT22;9163;48.818;8.976;2024-02-23T11:45:09;6.60;1.00
15937;DHT22;9163;48.818;8.976;2024-02-23T11:47:38;6.60;1.00
15937;DHT22;9163;48.818;8.976;2024-02-23T11:50:08;6.60;1.00
15937;DHT22;9163;48.818;8.976;2024-02-23T11:52:37;6.50;1.00
15937;DHT22;9163;48.818;8.976;2024-02-23T11:55:05;6.50;1.00
15937;DHT22;9163;48.818;8.976;2024-02-23T11:57:34;6.50;1.00
15937;DHT22;9163;48.818;8.976;2024-02-23T12:00:02;6.70;1.00
15937;DHT22;9163;48.818;8.976;2024-02-23T12:02:30;6.80;1.00
15937;DHT22;9163;48.818;8.976;2024-02-23T12:04:58;6.80;1.00
15937;DHT22;9163;48.818;8.976;2024-02-23T12:07:25;7.00;1.00
15937;DHT22;9163;48.818;8.976;2024-02-23T12:09:55;7.50;1.00
15937;DHT22;9163;48.818;8.976;2024-02-23T12:12:22;7.80;99.90
15937;DHT22;9163;48.818;8.976;2024-02-23T12:14:49;8.30;99.90
15937;DHT22;9163;48.818;8.976;2024-02-23T12:17:16;8.70;99.90
15937;DHT22;9163;48.818;8.976;2024-02-23T12:19:44;8.20;98.60
15937;DHT22;9163;48.818;8.976;2024-02-23T12:22:13;7.90;99.90
15937;DHT22;9163;48.818;8.976;2024-02-23T12:24:41;7.70;99.90
15937;DHT22;9163;48.818;8.976;2024-02-23T12:27:09;7.50;99.90
15937;DHT22;9163;48.818;8.976;2024-02-23T12:29:36;7.40;99.90
15937;DHT22;9163;48.818;8.976;2024-02-23T12:32:04;7.50;99.90
15937;DHT22;9163;48.818;8.976;2024-02-23T12:34:31;7.50;99.90
15937;DHT22;9163;48.818;8.976;2024-02-23T12:36:59;7.20;99.90
15937;DHT22;9163;48.818;8.976;2024-02-23T12:39:27;6.90;99.90
15937;DHT22;9163;48.818;8.976;2024-02-23T12:41:55;6.70;99.90
15937;DHT22;9163;48.818;8.976;2024-02-23T12:44:23;6.60;99.90
15937;DHT22;9163;48.818;8.976;2024-02-23T12:46:50;6.60;99.90
15937;DHT22;9163;48.818;8.976;2024-02-23T12:49:17;6.60;99.90
15937;DHT22;9163;48.818;8.976;2024-02-23T12:51:44;6.50;99.90
15937;DHT22;9163;48.818;8.976;2024-02-23T12:54:12;6.50;99.90
15937;DHT22;9163;48.818;8.976;2024-02-23T12:56:40;6.50;99.90
15937;DHT22;9163;48.818;8.976;2024-02-23T12:59:08;6.60;99.90
15937;DHT22;9163;48.818;8.976;2024-02-23T13:01:36;6.60;99.90
15937;DHT22;9163;48.818;8.976;2024-02-23T13:04:05;6.70;99.90
15937;DHT22;9163;48.818;8.976;2024-02-23T13:06:36;6.80;99.90
15937;DHT22;9163;48.818;8.976;2024-02-23T13:09:04;7.00;99.90
15937;DHT22;9163;48.818;8.976;2024-02-23T13:11:33;6.90;99.90
15937;DHT22;9163;48.818;8.976;2024-02-23T13:14:02;6.90;99.90
15937;DHT22;9163;48.818;8.976;2024-02-23T13:16:29;6.80;99.90
15937;DHT22;9163;48.818;8.976;2024-02-23T13:18:56;6.90;99.90
15937;DHT22;9163;48.818;8.976;2024-02-23T13:21:24;6.90;99.90
15937;DHT22;9163;48.818;8.976;2024-02-23T13:23:51;6.90;99.90
15937;DHT22;9163;48.818;8.976;2024-02-23T13:26:18;7.10;99.90
15937;DHT22;9163;48.818;8.976;2024-02-23T13:28:45;7.10;99.90
15937;DHT22;9163;48.818;8.976;2024-02-23T13:31:14;7.10;99.90
15937;DHT22;9163;48.818;8.976;2024-02-23T13:33:43;6.90;99.90
15937;DHT22;9163;48.818;8.976;2024-02-23T13:36:11;6.90;99.90
15937;DHT22;9163;48.818;8.976;2024-02-23T13:38:38;6.80;99.90
15937;DHT22;9163;48.818;8.976;2024-02-23T13:41:07;6.80;99.90
15937;DHT22;9163;48.818;8.976;2024-02-23T13:43:35;6.70;99.90
15937;DHT22;9163;48.818;8.976;2024-02-23T13:46:02;6.80;99.90
15937;DHT22;9163;48.818;8.976;2024-02-23T13:48:31;6.80;99.90
15937;DHT22;9163;48.818;8.976;2024-02-23T13:50:59;6.90;99.90
15937;DHT22;9163;48.818;8.976;2024-02-23T13:53:29;7.00;99.90
15937;DHT22;9163;48.818;8.976;2024-02-23T13:55:57;7.00;99.90
15937;DHT22;9163;48.818;8.976;2024-02-23T13:58:26;7.10;99.90
15937;DHT22;9163;48.818;8.976;2024-02-23T14:00:54;7.20;99.90
15937;DHT22;9163;48.818;8.976;2024-02-23T14:03:22;7.20;99.90
15937;DHT22;9163;48.818;8.976;2024-02-23T14:05:51;7.20;99.90
15937;DHT22;9163;48.818;8.976;2024-02-23T14:08:18;7.20;99.90
15937;DHT22;9163;48.818;8.976;2024-02-23T14:10:45;7.20;99.90
15937;DHT22;9163;48.818;8.976;2024-02-23T14:13:13;7.20;99.90
15937;DHT22;9163;48.818;8.976;2024-02-23T14:15:40;7.40;99.90
15937;DHT22;9163;48.818;8.976;2024-02-23T14:18:07;7.50;99.90
15937;DHT22;9163;48.818;8.976;2024-02-23T14:20:35;7.60;99.90
15937;DHT22;9163;48.818;8.976;2024-02-23T14:23:03;8.00;99.90
15937;DHT22;9163;48.818;8.976;2024-02-23T14:25:31;8.10;99.90
15937;DHT22;9163;48.818;8.976;2024-02-23T14:27:58;7.80;67.80
15937;DHT22;9163;48.818;8.976;2024-02-23T14:30:25;7.60;14.10
15937;DHT22;9163;48.818;8.976;2024-02-23T14:32:52;7.60;46.00
15937;DHT22;9163;48.818;8.976;2024-02-23T14:35:20;7.60;99.90
15937;DHT22;9163;48.818;8.976;2024-02-23T14:37:47;7.80;99.90
15937;DHT22;9163;48.818;8.976;2024-02-23T14:40:16;7.90;99.90
15937;DHT22;9163;48.818;8.976;2024-02-23T14:42:43;8.30;12.20
15937;DHT22;9163;48.818;8.976;2024-02-23T14:45:10;8.20;1.00
15937;DHT22;9163;48.818;8.976;2024-02-23T14:47:39;8.10;1.00
15937;DHT22;9163;48.818;8.976;2024-02-23T14:50:07;7.70;1.00
15937;DHT22;9163;48.818;8.976;2024-02-23T14:52:35;7.50;1.00
15937;DHT22;9163;48.818;8.976;2024-02-23T14:55:02;7.40;25.40
15937;DHT22;9163;48.818;8.976;2024-02-23T14:57:32;7.40;65.90
15937;DHT22;9163;48.818;8.976;2024-02-23T14:59:59;7.40;26.40
15937;DHT22;9163;48.818;8.976;2024-02-23T15:02:26;7.40;99.90
15937;DHT22;9163;48.818;8.976;2024-02-23T15:04:53;7.30;99.90
15937;DHT22;9163;48.818;8.976;2024-02-23T15:07:21;7.30;99.90
15937;DHT22;9163;48.818;8.976;2024-02-23T15:09:48;7.20;99.90
15937;DHT22;9163;48.818;8.976;2024-02-23T15:12:15;7.10;99.90
15937;DHT22;9163;48.818;8.976;2024-02-23T15:14:44;7.00;99.90
15937;DHT22;9163;48.818;8.976;2024-02-23T15:17:11;7.00;99.90
15937;DHT22;9163;48.818;8.976;2024-02-23T15:19:38;6.90;99.90
15937;DHT22;9163;48.818;8.976;2024-02-23T15:22:06;6.90;99.90
15937;DHT22;9163;48.818;8.976;2024-02-23T15:24:35;7.00;99.90
15937;DHT22;9163;48.818;8.976;2024-02-23T15:27:03;7.40;99.90
15937;DHT22;9163;48.818;8.976;2024-02-23T15:29:30;8.20;99.90
15937;DHT22;9163;48.818;8.976;2024-02-23T15:31:59;8.20;99.90
15937;DHT22;9163;48.818;8.976;2024-02-23T15:34:26;8.50;99.90
15937;DHT22;9163;48.818;8.976;2024-02-23T15:36:54;9.40;99.90
15937;DHT22;9163;48.818;8.976;2024-02-23T15:39:20;10.90;99.90
15937;DHT22;9163;48.818;8.976;2024-02-23T15:41:47;11.00;1.00
15937;DHT22;9163;48.818;8.976;2024-02-23T15:44:15;12.60;1.00
15937;DHT22;9163;48.818;8.976;2024-02-23T15:46:43;13.00;1.00
15937;DHT22;9163;48.818;8.976;2024-02-23T15:49:13;13.30;1.00
15937;DHT22;9163;48.818;8.976;2024-02-23T15:51:44;13.30;1.00
15937;DHT22;9163;48.818;8.976;2024-02-23T15:54:11;13.50;1.00
15937;DHT22;9163;48.818;8.976;2024-02-23T15:56:39;12.40;1.00
15937;DHT22;9163;48.818;8.976;2024-02-23T15:59:06;11.40;1.00
15937;DHT22;9163;48.818;8.976;2024-02-23T16:01:34;10.00;1.00
15937;DHT22;9163;48.818;8.976;2024-02-23T16:04:02;8.70;1.00
15937;DHT22;9163;48.818;8.976;2024-02-23T16:06:30;8.30;99.90
15937;DHT22;9163;48.818;8.976;2024-02-23T16:09:00;9.00;99.90
15937;DHT22;9163;48.818;8.976;2024-02-23T16:11:28;10.00;99.90